sensor_id;sensor_type;location;lat;lon;timestamp;pressure;altitude;pressure_sealevel;temperature;humidity
70009;BME280;59542;37.950;-122.338;2022-10-16T00:01:18;101107.47;;;18.77;65.64
70009;BME280;59542;37.950;-122.338;2022-10-16T00:03:45;101106.13;;;18.80;65.32
70009;BME280;59542;37.950;-122.338;2022-10-16T00:06:13;101105.50;;;18.72;65.42
70009;BME280;59542;37.950;-122.338;2022-10-16T00:08:40;101105.44;;;18.67;65.83
70009;BME280;59542;37.950;-122.338;2022-10-16T00:11:14;101092.88;;;18.61;65.76
70009;BME280;59542;37.950;-122.338;2022-10-16T00:13:42;101093.75;;;18.45;66.27
70009;BME280;59542;37.950;-122.338;2022-10-16T00:16:10;101096.25;;;18.30;67.10
70009;BME280;59542;37.950;-122.338;2022-10-16T00:18:37;101099.66;;;18.42;66.31
70009;BME280;59542;37.950;-122.338;2022-10-16T00:21:13;101092.63;;;18.41;66.44
70009;BME280;59542;37.950;-122.338;2022-10-16T00:23:40;101103.31;;;18.31;66.84
70009;BME280;59542;37.950;-122.338;2022-10-16T00:26:10;101092.06;;;18.39;67.01
70009;BME280;59542;37.950;-122.338;2022-10-16T00:28:37;101093.56;;;18.30;67.35
70009;BME280;59542;37.950;-122.338;2022-10-16T00:31:10;101096.94;;;18.20;67.83
70009;BME280;59542;37.950;-122.338;2022-10-16T00:33:38;101093.41;;;18.19;68.11
70009;BME280;59542;37.950;-122.338;2022-10-16T00:36:06;101087.81;;;18.26;67.74
70009;BME280;59542;37.950;-122.338;2022-10-16T00:38:32;101095.41;;;18.07;68.02
70009;BME280;59542;37.950;-122.338;2022-10-16T00:40:59;101092.56;;;17.97;68.45
70009;BME280;59542;37.950;-122.338;2022-10-16T00:46:02;101094.19;;;17.98;68.63
70009;BME280;59542;37.950;-122.338;2022-10-16T00:48:29;101095.34;;;18.02;68.41
70009;BME280;59542;37.950;-122.338;2022-10-16T00:50:57;101092.91;;;17.67;69.41
70009;BME280;59542;37.950;-122.338;2022-10-16T00:53:25;101092.47;;;17.58;70.22
70009;BME280;59542;37.950;-122.338;2022-10-16T00:55:52;101090.94;;;17.62;69.87
70009;BME280;59542;37.950;-122.338;2022-10-16T00:58:18;101088.13;;;17.57;70.13
70009;BME280;59542;37.950;-122.338;2022-10-16T01:00:45;101096.75;;;17.54;70.46
70009;BME280;59542;37.950;-122.338;2022-10-16T01:03:30;101094.38;;;17.58;70.38
70009;BME280;59542;37.950;-122.338;2022-10-16T01:06:05;101101.09;;;17.55;70.47
70009;BME280;59542;37.950;-122.338;2022-10-16T01:11:33;101095.09;;;17.53;70.78
70009;BME280;59542;37.950;-122.338;2022-10-16T01:14:06;101102.22;;;17.42;70.96
70009;BME280;59542;37.950;-122.338;2022-10-16T01:16:39;101106.50;;;17.38;71.21
70009;BME280;59542;37.950;-122.338;2022-10-16T01:19:18;101101.22;;;17.32;71.81
70009;BME280;59542;37.950;-122.338;2022-10-16T01:21:48;101106.16;;;17.35;71.48
70009;BME280;59542;37.950;-122.338;2022-10-16T01:24:28;101106.97;;;17.19;72.22
70009;BME280;59542;37.950;-122.338;2022-10-16T01:29:42;101113.75;;;17.21;71.82
70009;BME280;59542;37.950;-122.338;2022-10-16T01:32:33;101103.38;;;17.30;71.66
70009;BME280;59542;37.950;-122.338;2022-10-16T01:35:08;101104.34;;;17.24;71.48
70009;BME280;59542;37.950;-122.338;2022-10-16T01:43:49;101109.34;;;17.32;71.50
70009;BME280;59542;37.950;-122.338;2022-10-16T01:46:20;101112.78;;;17.10;71.99
70009;BME280;59542;37.950;-122.338;2022-10-16T01:48:49;101108.03;;;17.18;71.86
70009;BME280;59542;37.950;-122.338;2022-10-16T01:51:17;101109.13;;;17.33;71.09
70009;BME280;59542;37.950;-122.338;2022-10-16T01:53:50;101108.06;;;17.34;71.17
70009;BME280;59542;37.950;-122.338;2022-10-16T01:56:19;101114.09;;;17.25;71.19
70009;BME280;59542;37.950;-122.338;2022-10-16T01:59:07;101111.00;;;17.16;71.70
70009;BME280;59542;37.950;-122.338;2022-10-16T02:01:37;101115.34;;;17.17;71.86
70009;BME280;59542;37.950;-122.338;2022-10-16T02:04:15;101119.66;;;17.18;71.95
70009;BME280;59542;37.950;-122.338;2022-10-16T02:06:43;101124.19;;;17.29;71.48
70009;BME280;59542;37.950;-122.338;2022-10-16T02:09:09;101114.53;;;17.33;71.30
70009;BME280;59542;37.950;-122.338;2022-10-16T02:11:36;101112.91;;;17.32;71.33
70009;BME280;59542;37.950;-122.338;2022-10-16T02:14:05;101118.63;;;17.36;71.16
70009;BME280;59542;37.950;-122.338;2022-10-16T02:16:39;101127.06;;;17.23;71.63
70009;BME280;59542;37.950;-122.338;2022-10-16T02:19:07;101124.44;;;17.28;71.33
70009;BME280;59542;37.950;-122.338;2022-10-16T02:21:43;101120.34;;;17.25;71.80
70009;BME280;59542;37.950;-122.338;2022-10-16T02:24:43;101124.63;;;17.38;71.16
70009;BME280;59542;37.950;-122.338;2022-10-16T02:29:52;101127.72;;;17.30;71.81
70009;BME280;59542;37.950;-122.338;2022-10-16T02:32:23;101135.47;;;17.38;71.39
70009;BME280;59542;37.950;-122.338;2022-10-16T02:34:50;101137.00;;;17.34;71.31
70009;BME280;59542;37.950;-122.338;2022-10-16T02:37:18;101139.78;;;17.22;71.77
70009;BME280;59542;37.950;-122.338;2022-10-16T02:39:44;101143.31;;;17.39;71.48
70009;BME280;59542;37.950;-122.338;2022-10-16T02:42:12;101149.00;;;17.38;71.61
70009;BME280;59542;37.950;-122.338;2022-10-16T02:44:39;101141.50;;;17.28;71.98
70009;BME280;59542;37.950;-122.338;2022-10-16T02:47:05;101148.66;;;17.34;72.04
70009;BME280;59542;37.950;-122.338;2022-10-16T02:49:33;101147.16;;;17.27;72.08
70009;BME280;59542;37.950;-122.338;2022-10-16T02:51:59;101151.25;;;17.29;71.59
70009;BME280;59542;37.950;-122.338;2022-10-16T02:54:25;101150.78;;;17.32;71.43
70009;BME280;59542;37.950;-122.338;2022-10-16T02:56:51;101153.31;;;17.39;71.27
70009;BME280;59542;37.950;-122.338;2022-10-16T02:59:17;101154.88;;;17.35;71.75
70009;BME280;59542;37.950;-122.338;2022-10-16T03:01:43;101154.94;;;17.23;72.31
70009;BME280;59542;37.950;-122.338;2022-10-16T03:04:10;101154.22;;;17.28;71.83
70009;BME280;59542;37.950;-122.338;2022-10-16T03:06:36;101156.91;;;17.28;72.12
70009;BME280;59542;37.950;-122.338;2022-10-16T03:09:02;101151.09;;;17.36;71.37
70009;BME280;59542;37.950;-122.338;2022-10-16T03:11:29;101156.91;;;17.28;71.58
70009;BME280;59542;37.950;-122.338;2022-10-16T03:13:55;101156.91;;;17.28;71.63
70009;BME280;59542;37.950;-122.338;2022-10-16T03:16:21;101162.59;;;17.43;71.20
70009;BME280;59542;37.950;-122.338;2022-10-16T03:18:50;101156.84;;;17.39;70.62
70009;BME280;59542;37.950;-122.338;2022-10-16T03:21:16;101163.56;;;17.37;71.09
70009;BME280;59542;37.950;-122.338;2022-10-16T03:23:42;101163.25;;;17.33;71.39
70009;BME280;59542;37.950;-122.338;2022-10-16T03:26:09;101166.50;;;17.35;70.95
70009;BME280;59542;37.950;-122.338;2022-10-16T03:28:35;101162.91;;;17.30;71.06
70009;BME280;59542;37.950;-122.338;2022-10-16T03:31:01;101160.47;;;17.45;70.33
70009;BME280;59542;37.950;-122.338;2022-10-16T03:33:27;101163.66;;;17.42;70.70
70009;BME280;59542;37.950;-122.338;2022-10-16T03:35:54;101161.09;;;17.35;70.80
70009;BME280;59542;37.950;-122.338;2022-10-16T03:38:21;101163.09;;;17.40;70.75
70009;BME280;59542;37.950;-122.338;2022-10-16T03:40:47;101159.31;;;17.41;70.62
70009;BME280;59542;37.950;-122.338;2022-10-16T03:43:13;101158.50;;;17.40;70.53
70009;BME280;59542;37.950;-122.338;2022-10-16T03:45:40;101162.84;;;17.41;71.04
70009;BME280;59542;37.950;-122.338;2022-10-16T03:48:06;101161.75;;;17.42;70.75
70009;BME280;59542;37.950;-122.338;2022-10-16T03:50:32;101160.66;;;17.55;70.00
70009;BME280;59542;37.950;-122.338;2022-10-16T03:52:58;101163.84;;;17.52;70.17
70009;BME280;59542;37.950;-122.338;2022-10-16T03:55:24;101162.00;;;17.41;70.56
70009;BME280;59542;37.950;-122.338;2022-10-16T03:57:50;101162.44;;;17.33;71.25
70009;BME280;59542;37.950;-122.338;2022-10-16T04:00:17;101160.94;;;17.42;71.05
70009;BME280;59542;37.950;-122.338;2022-10-16T04:02:44;101163.09;;;17.40;71.00
70009;BME280;59542;37.950;-122.338;2022-10-16T04:05:11;101158.31;;;17.30;70.76
70009;BME280;59542;37.950;-122.338;2022-10-16T04:07:37;101158.16;;;17.37;70.47
70009;BME280;59542;37.950;-122.338;2022-10-16T04:10:04;101156.22;;;17.21;70.83
70009;BME280;59542;37.950;-122.338;2022-10-16T04:12:30;101155.44;;;17.37;70.71
70009;BME280;59542;37.950;-122.338;2022-10-16T04:14:56;101166.16;;;17.32;70.34
70009;BME280;59542;37.950;-122.338;2022-10-16T04:17:23;101169.31;;;17.40;70.19
70009;BME280;59542;37.950;-122.338;2022-10-16T04:19:49;101173.25;;;17.33;70.52
70009;BME280;59542;37.950;-122.338;2022-10-16T04:22:15;101166.09;;;17.27;70.88
70009;BME280;59542;37.950;-122.338;2022-10-16T04:24:41;101169.56;;;17.39;70.74
70009;BME280;59542;37.950;-122.338;2022-10-16T04:27:08;101168.66;;;17.33;70.51
70009;BME280;59542;37.950;-122.338;2022-10-16T04:29:34;101170.44;;;17.28;70.88
70009;BME280;59542;37.950;-122.338;2022-10-16T04:32:00;101179.06;;;17.41;70.66
70009;BME280;59542;37.950;-122.338;2022-10-16T04:34:26;101178.97;;;17.36;70.79
70009;BME280;59542;37.950;-122.338;2022-10-16T04:36:52;101173.25;;;17.33;70.45
70009;BME280;59542;37.950;-122.338;2022-10-16T04:39:18;101178.59;;;17.45;70.56
70009;BME280;59542;37.950;-122.338;2022-10-16T04:41:45;101174.31;;;17.49;70.55
70009;BME280;59542;37.950;-122.338;2022-10-16T04:44:11;101178.50;;;17.39;70.51
70009;BME280;59542;37.950;-122.338;2022-10-16T04:46:37;101185.50;;;17.24;71.12
70009;BME280;59542;37.950;-122.338;2022-10-16T04:49:03;101182.56;;;17.25;71.20
70009;BME280;59542;37.950;-122.338;2022-10-16T04:51:29;101178.66;;;17.33;70.88
70009;BME280;59542;37.950;-122.338;2022-10-16T04:53:56;101186.38;;;17.41;70.77
70009;BME280;59542;37.950;-122.338;2022-10-16T04:56:22;101191.44;;;17.37;70.62
70009;BME280;59542;37.950;-122.338;2022-10-16T04:58:48;101186.47;;;17.46;70.33
70009;BME280;59542;37.950;-122.338;2022-10-16T05:01:15;101194.09;;;17.49;70.16
70009;BME280;59542;37.950;-122.338;2022-10-16T05:03:41;101194.09;;;17.49;70.26
70009;BME280;59542;37.950;-122.338;2022-10-16T05:06:07;101197.19;;;17.41;70.49
70009;BME280;59542;37.950;-122.338;2022-10-16T05:08:34;101189.16;;;17.46;70.20
70009;BME280;59542;37.950;-122.338;2022-10-16T05:11:00;101201.38;;;17.49;69.79
70009;BME280;59542;37.950;-122.338;2022-10-16T05:13:27;101206.38;;;17.40;70.40
70009;BME280;59542;37.950;-122.338;2022-10-16T05:15:54;101210.97;;;17.39;70.29
70009;BME280;59542;37.950;-122.338;2022-10-16T05:18:20;101211.97;;;17.50;70.29
70009;BME280;59542;37.950;-122.338;2022-10-16T05:20:46;101212.19;;;17.49;70.23
70009;BME280;59542;37.950;-122.338;2022-10-16T05:23:12;101217.41;;;17.50;70.16
70009;BME280;59542;37.950;-122.338;2022-10-16T05:25:38;101222.22;;;17.48;69.86
70009;BME280;59542;37.950;-122.338;2022-10-16T05:28:04;101218.75;;;17.36;70.44
70009;BME280;59542;37.950;-122.338;2022-10-16T05:30:31;101226.28;;;17.34;70.38
70009;BME280;59542;37.950;-122.338;2022-10-16T05:32:57;101228.50;;;17.37;70.56
70009;BME280;59542;37.950;-122.338;2022-10-16T05:35:23;101227.31;;;17.45;70.19
70009;BME280;59542;37.950;-122.338;2022-10-16T05:37:49;101231.84;;;17.56;69.34
70009;BME280;59542;37.950;-122.338;2022-10-16T05:40:15;101224.09;;;17.48;69.94
70009;BME280;59542;37.950;-122.338;2022-10-16T05:42:42;101221.78;;;17.39;70.02
70009;BME280;59542;37.950;-122.338;2022-10-16T05:45:10;101223.59;;;17.34;70.33
70009;BME280;59542;37.950;-122.338;2022-10-16T05:47:37;101227.34;;;17.33;70.49
70009;BME280;59542;37.950;-122.338;2022-10-16T05:50:04;101222.81;;;17.50;69.78
70009;BME280;59542;37.950;-122.338;2022-10-16T05:52:30;101226.72;;;17.42;69.82
70009;BME280;59542;37.950;-122.338;2022-10-16T05:54:56;101224.91;;;17.48;69.62
70009;BME280;59542;37.950;-122.338;2022-10-16T05:57:22;101225.16;;;17.47;69.97
70009;BME280;59542;37.950;-122.338;2022-10-16T05:59:49;101219.03;;;17.51;69.59
70009;BME280;59542;37.950;-122.338;2022-10-16T06:02:15;101218.53;;;17.54;69.57
70009;BME280;59542;37.950;-122.338;2022-10-16T06:04:41;101221.69;;;17.63;69.63
70009;BME280;59542;37.950;-122.338;2022-10-16T06:07:08;101223.63;;;17.51;69.29
70009;BME280;59542;37.950;-122.338;2022-10-16T06:09:34;101229.28;;;17.49;69.36
70009;BME280;59542;37.950;-122.338;2022-10-16T06:12:00;101232.06;;;17.54;69.45
70009;BME280;59542;37.950;-122.338;2022-10-16T06:14:26;101227.06;;;17.46;69.50
70009;BME280;59542;37.950;-122.338;2022-10-16T06:16:52;101229.53;;;17.64;68.52
70009;BME280;59542;37.950;-122.338;2022-10-16T06:19:19;101237.66;;;17.64;68.46
70009;BME280;59542;37.950;-122.338;2022-10-16T06:21:45;101230.88;;;17.62;69.01
70009;BME280;59542;37.950;-122.338;2022-10-16T06:24:11;101227.72;;;17.53;69.36
70009;BME280;59542;37.950;-122.338;2022-10-16T06:26:38;101235.66;;;17.43;69.23
70009;BME280;59542;37.950;-122.338;2022-10-16T06:29:04;101235.91;;;17.41;69.79
70009;BME280;59542;37.950;-122.338;2022-10-16T06:31:31;101236.16;;;17.40;69.54
70009;BME280;59542;37.950;-122.338;2022-10-16T06:33:59;101230.16;;;17.38;69.41
70009;BME280;59542;37.950;-122.338;2022-10-16T06:36:26;101231.94;;;17.32;69.42
70009;BME280;59542;37.950;-122.338;2022-10-16T06:38:53;101227.38;;;17.21;69.75
70009;BME280;59542;37.950;-122.338;2022-10-16T06:41:20;101228.31;;;17.27;69.57
70009;BME280;59542;37.950;-122.338;2022-10-16T06:43:47;101225.41;;;17.17;70.35
70009;BME280;59542;37.950;-122.338;2022-10-16T06:46:15;101222.06;;;17.26;70.40
70009;BME280;59542;37.950;-122.338;2022-10-16T06:48:42;101227.22;;;17.39;69.93
70009;BME280;59542;37.950;-122.338;2022-10-16T06:51:11;101223.59;;;17.34;69.98
70009;BME280;59542;37.950;-122.338;2022-10-16T06:53:41;101231.09;;;17.32;69.57
70009;BME280;59542;37.950;-122.338;2022-10-16T06:58:37;101230.28;;;17.31;69.41
70009;BME280;59542;37.950;-122.338;2022-10-16T07:01:04;101218.16;;;17.34;69.22
70009;BME280;59542;37.950;-122.338;2022-10-16T07:03:31;101219.13;;;17.28;69.61
70009;BME280;59542;37.950;-122.338;2022-10-16T07:06:02;101220.63;;;17.35;69.97
70009;BME280;59542;37.950;-122.338;2022-10-16T07:08:33;101226.53;;;17.32;69.94
70009;BME280;59542;37.950;-122.338;2022-10-16T07:11:04;101228.84;;;17.40;69.89
70009;BME280;59542;37.950;-122.338;2022-10-16T07:13:33;101230.47;;;17.41;69.80
70009;BME280;59542;37.950;-122.338;2022-10-16T07:16:10;101231.19;;;17.37;70.01
70009;BME280;59542;37.950;-122.338;2022-10-16T07:18:37;101234.59;;;17.44;69.94
70009;BME280;59542;37.950;-122.338;2022-10-16T07:21:10;101234.50;;;17.39;69.89
70009;BME280;59542;37.950;-122.338;2022-10-16T07:23:37;101241.44;;;17.35;70.15
70009;BME280;59542;37.950;-122.338;2022-10-16T07:26:04;101226.03;;;17.35;69.93
70009;BME280;59542;37.950;-122.338;2022-10-16T07:28:32;101238.44;;;17.48;69.59
70009;BME280;59542;37.950;-122.338;2022-10-16T07:31:06;101232.81;;;17.50;69.42
70009;BME280;59542;37.950;-122.338;2022-10-16T07:33:34;101240.34;;;17.48;69.74
70009;BME280;59542;37.950;-122.338;2022-10-16T07:36:00;101245.22;;;17.34;70.48
70009;BME280;59542;37.950;-122.338;2022-10-16T07:38:26;101243.09;;;17.36;69.96
70009;BME280;59542;37.950;-122.338;2022-10-16T07:41:02;101242.84;;;17.37;69.90
70009;BME280;59542;37.950;-122.338;2022-10-16T07:43:28;101242.53;;;17.34;69.79
70009;BME280;59542;37.950;-122.338;2022-10-16T07:45:55;101240.59;;;17.46;69.72
70009;BME280;59542;37.950;-122.338;2022-10-16T07:48:21;101248.22;;;17.49;69.50
70009;BME280;59542;37.950;-122.338;2022-10-16T07:50:49;101237.69;;;17.36;70.03
70009;BME280;59542;37.950;-122.338;2022-10-16T07:53:15;101248.25;;;17.37;69.69
70009;BME280;59542;37.950;-122.338;2022-10-16T07:55:41;101249.78;;;17.45;69.59
70009;BME280;59542;37.950;-122.338;2022-10-16T07:58:08;101246.47;;;17.43;69.77
70009;BME280;59542;37.950;-122.338;2022-10-16T08:00:36;101242.88;;;17.54;68.59
70009;BME280;59542;37.950;-122.338;2022-10-16T08:03:03;101250.84;;;17.44;69.32
70009;BME280;59542;37.950;-122.338;2022-10-16T08:05:31;101250.84;;;17.44;69.34
70009;BME280;59542;37.950;-122.338;2022-10-16T08:07:57;101253.41;;;17.51;69.06
70009;BME280;59542;37.950;-122.338;2022-10-16T08:10:25;101251.84;;;17.55;68.82
70009;BME280;59542;37.950;-122.338;2022-10-16T08:12:52;101252.06;;;17.53;68.81
70009;BME280;59542;37.950;-122.338;2022-10-16T08:15:19;101256.72;;;17.41;69.36
70009;BME280;59542;37.950;-122.338;2022-10-16T08:17:57;101256.81;;;17.46;69.61
70009;BME280;59542;37.950;-122.338;2022-10-16T08:20:25;101250.13;;;17.37;69.89
70009;BME280;59542;37.950;-122.338;2022-10-16T08:22:51;101259.28;;;17.48;69.34
70009;BME280;59542;37.950;-122.338;2022-10-16T08:25:17;101260.09;;;17.48;69.30
70009;BME280;59542;37.950;-122.338;2022-10-16T08:27:43;101265.66;;;17.41;68.77
70009;BME280;59542;37.950;-122.338;2022-10-16T08:30:11;101260.66;;;17.33;69.54
70009;BME280;59542;37.950;-122.338;2022-10-16T08:32:37;101265.41;;;17.43;69.48
70009;BME280;59542;37.950;-122.338;2022-10-16T08:35:03;101261.16;;;17.47;69.17
70009;BME280;59542;37.950;-122.338;2022-10-16T08:37:31;101264.53;;;17.54;68.65
70009;BME280;59542;37.950;-122.338;2022-10-16T08:39:58;101259.06;;;17.49;69.03
70009;BME280;59542;37.950;-122.338;2022-10-16T08:45:20;101272.59;;;17.49;69.30
70009;BME280;59542;37.950;-122.338;2022-10-16T08:50:24;101270.06;;;17.59;68.60
70009;BME280;59542;37.950;-122.338;2022-10-16T08:52:51;101279.19;;;17.41;69.57
70009;BME280;59542;37.950;-122.338;2022-10-16T08:58:33;101265.03;;;17.51;69.85
70009;BME280;59542;37.950;-122.338;2022-10-16T09:01:05;101271.53;;;17.50;69.34
70009;BME280;59542;37.950;-122.338;2022-10-16T09:14:49;101281.66;;;17.43;69.58
70009;BME280;59542;37.950;-122.338;2022-10-16T09:22:41;101282.66;;;17.54;69.55
70009;BME280;59542;37.950;-122.338;2022-10-16T09:25:13;101293.84;;;17.57;69.50
70009;BME280;59542;37.950;-122.338;2022-10-16T09:27:40;101289.19;;;17.41;69.98
70009;BME280;59542;37.950;-122.338;2022-10-16T09:30:14;101286.94;;;17.50;69.56
70009;BME280;59542;37.950;-122.338;2022-10-16T09:32:42;101286.59;;;17.46;69.35
70009;BME280;59542;37.950;-122.338;2022-10-16T09:35:22;101288.53;;;17.34;70.10
70009;BME280;59542;37.950;-122.338;2022-10-16T09:37:51;101288.38;;;17.40;70.02
70009;BME280;59542;37.950;-122.338;2022-10-16T09:40:34;101285.56;;;17.35;70.32
70009;BME280;59542;37.950;-122.338;2022-10-16T09:43:25;101282.16;;;17.40;69.93
70009;BME280;59542;37.950;-122.338;2022-10-16T09:48:30;101293.66;;;17.47;69.91
70009;BME280;59542;37.950;-122.338;2022-10-16T09:51:02;101285.56;;;17.35;70.30
70009;BME280;59542;37.950;-122.338;2022-10-16T09:53:40;101296.09;;;17.49;70.14
70009;BME280;59542;37.950;-122.338;2022-10-16T09:56:07;101285.78;;;17.46;69.94
70009;BME280;59542;37.950;-122.338;2022-10-16T09:58:35;101298.09;;;17.53;69.91
70009;BME280;59542;37.950;-122.338;2022-10-16T10:01:02;101298.19;;;17.58;69.51
70009;BME280;59542;37.950;-122.338;2022-10-16T10:03:40;101295.69;;;17.40;70.63
70009;BME280;59542;37.950;-122.338;2022-10-16T10:06:17;101295.91;;;17.38;70.36
70009;BME280;59542;37.950;-122.338;2022-10-16T10:08:58;101302.63;;;17.36;70.50
70009;BME280;59542;37.950;-122.338;2022-10-16T10:14:16;101299.97;;;17.53;69.42
70009;BME280;59542;37.950;-122.338;2022-10-16T10:16:43;101309.88;;;17.47;69.68
70009;BME280;59542;37.950;-122.338;2022-10-16T10:19:21;101313.31;;;17.42;70.02
70009;BME280;59542;37.950;-122.338;2022-10-16T10:21:48;101308.00;;;17.48;69.89
70009;BME280;59542;37.950;-122.338;2022-10-16T10:24:16;101312.84;;;17.46;70.07
70009;BME280;59542;37.950;-122.338;2022-10-16T10:27:09;101310.75;;;17.36;70.55
70009;BME280;59542;37.950;-122.338;2022-10-16T10:29:53;101317.44;;;17.45;69.75
70009;BME280;59542;37.950;-122.338;2022-10-16T10:36:15;101322.81;;;17.57;69.12
70009;BME280;59542;37.950;-122.338;2022-10-16T10:43:25;101328.28;;;17.33;70.17
70009;BME280;59542;37.950;-122.338;2022-10-16T10:46:00;101321.31;;;17.37;70.30
70009;BME280;59542;37.950;-122.338;2022-10-16T10:51:08;101331.78;;;17.46;70.20
70009;BME280;59542;37.950;-122.338;2022-10-16T10:54:02;101334.09;;;17.54;69.88
70009;BME280;59542;37.950;-122.338;2022-10-16T11:01:48;101339.91;;;17.46;69.98
70009;BME280;59542;37.950;-122.338;2022-10-16T11:04:23;101335.78;;;17.43;70.12
70009;BME280;59542;37.950;-122.338;2022-10-16T11:07:21;101339.53;;;17.42;70.05
70009;BME280;59542;37.950;-122.338;2022-10-16T11:10:13;101334.75;;;17.32;70.11
70009;BME280;59542;37.950;-122.338;2022-10-16T11:12:44;101335.09;;;17.36;70.32
70009;BME280;59542;37.950;-122.338;2022-10-16T11:15:18;101339.00;;;17.28;70.33
70009;BME280;59542;37.950;-122.338;2022-10-16T11:17:52;101338.28;;;17.33;69.70
70009;BME280;59542;37.950;-122.338;2022-10-16T11:20:25;101339.53;;;17.42;69.62
70009;BME280;59542;37.950;-122.338;2022-10-16T11:22:58;101341.56;;;17.35;69.71
70009;BME280;59542;37.950;-122.338;2022-10-16T11:25:32;101346.53;;;17.38;69.31
70009;BME280;59542;37.950;-122.338;2022-10-16T11:30:33;101344.97;;;17.30;69.80
70009;BME280;59542;37.950;-122.338;2022-10-16T11:38:20;101351.78;;;17.45;68.73
70009;BME280;59542;37.950;-122.338;2022-10-16T11:40:54;101354.63;;;17.38;68.78
70009;BME280;59542;37.950;-122.338;2022-10-16T11:43:29;101347.22;;;17.33;68.79
70009;BME280;59542;37.950;-122.338;2022-10-16T11:46:02;101359.56;;;17.41;69.05
70009;BME280;59542;37.950;-122.338;2022-10-16T11:48:41;101363.91;;;17.30;69.29
70009;BME280;59542;37.950;-122.338;2022-10-16T11:51:36;101359.94;;;17.33;69.21
70009;BME280;59542;37.950;-122.338;2022-10-16T11:56:51;101361.69;;;17.39;69.01
70009;BME280;59542;37.950;-122.338;2022-10-16T12:02:25;101366.97;;;17.46;69.16
70009;BME280;59542;37.950;-122.338;2022-10-16T12:04:49;101373.22;;;17.34;69.59
70009;BME280;59542;37.950;-122.338;2022-10-16T12:07:35;101363.56;;;17.38;69.47
70009;BME280;59542;37.950;-122.338;2022-10-16T12:10:19;101363.34;;;17.28;69.80
70009;BME280;59542;37.950;-122.338;2022-10-16T12:12:45;101371.66;;;17.50;69.92
70009;BME280;59542;37.950;-122.338;2022-10-16T12:15:19;101368.59;;;17.47;69.90
70009;BME280;59542;37.950;-122.338;2022-10-16T12:17:46;101378.88;;;17.33;70.10
70009;BME280;59542;37.950;-122.338;2022-10-16T12:23:03;101388.28;;;17.30;70.21
70009;BME280;59542;37.950;-122.338;2022-10-16T12:25:33;101394.28;;;17.32;70.46
70009;BME280;59542;37.950;-122.338;2022-10-16T12:28:21;101391.81;;;17.31;70.56
70009;BME280;59542;37.950;-122.338;2022-10-16T12:30:56;101394.03;;;17.34;70.25
70009;BME280;59542;37.950;-122.338;2022-10-16T12:33:27;101391.69;;;17.26;70.78
70009;BME280;59542;37.950;-122.338;2022-10-16T12:35:54;101385.78;;;17.40;70.70
70009;BME280;59542;37.950;-122.338;2022-10-16T12:38:26;101396.16;;;17.44;70.37
70009;BME280;59542;37.950;-122.338;2022-10-16T12:41:05;101390.97;;;17.30;70.88
70009;BME280;59542;37.950;-122.338;2022-10-16T12:43:47;101396.75;;;17.34;70.85
70009;BME280;59542;37.950;-122.338;2022-10-16T12:48:42;101402.16;;;17.34;70.51
70009;BME280;59542;37.950;-122.338;2022-10-16T12:51:34;101406.63;;;17.40;70.53
70009;BME280;59542;37.950;-122.338;2022-10-16T13:05:03;101416.22;;;17.59;69.70
70009;BME280;59542;37.950;-122.338;2022-10-16T13:07:56;101419.69;;;17.55;69.46
70009;BME280;59542;37.950;-122.338;2022-10-16T13:21:59;101413.53;;;17.48;69.74
70009;BME280;59542;37.950;-122.338;2022-10-16T13:27:25;101416.00;;;17.61;69.43
70009;BME280;59542;37.950;-122.338;2022-10-16T13:30:07;101411.56;;;17.55;69.85
70009;BME280;59542;37.950;-122.338;2022-10-16T13:32:35;101416.34;;;17.53;69.69
70009;BME280;59542;37.950;-122.338;2022-10-16T13:35:01;101410.13;;;17.52;69.52
70009;BME280;59542;37.950;-122.338;2022-10-16T13:37:29;101423.06;;;17.62;69.13
70009;BME280;59542;37.950;-122.338;2022-10-16T13:40:28;101424.94;;;17.73;68.82
70009;BME280;59542;37.950;-122.338;2022-10-16T13:42:54;101426.59;;;17.74;68.06
70009;BME280;59542;37.950;-122.338;2022-10-16T13:45:23;101421.28;;;17.79;68.19
70009;BME280;59542;37.950;-122.338;2022-10-16T13:48:02;101424.00;;;17.67;68.34
70009;BME280;59542;37.950;-122.338;2022-10-16T13:50:28;101416.22;;;17.59;68.70
70009;BME280;59542;37.950;-122.338;2022-10-16T13:53:10;101427.19;;;17.53;68.21
70009;BME280;59542;37.950;-122.338;2022-10-16T13:55:38;101425.91;;;17.55;67.77
70009;BME280;59542;37.950;-122.338;2022-10-16T13:58:12;101422.38;;;17.55;67.57
70009;BME280;59542;37.950;-122.338;2022-10-16T14:00:39;101422.81;;;17.63;67.27
70009;BME280;59542;37.950;-122.338;2022-10-16T14:03:16;101424.84;;;17.45;67.52
70009;BME280;59542;37.950;-122.338;2022-10-16T14:05:54;101419.19;;;17.46;67.54
70009;BME280;59542;37.950;-122.338;2022-10-16T14:08:22;101426.63;;;17.39;66.88
70009;BME280;59542;37.950;-122.338;2022-10-16T14:10:52;101430.00;;;17.58;66.44
70009;BME280;59542;37.950;-122.338;2022-10-16T14:13:36;101437.78;;;17.54;66.03
70009;BME280;59542;37.950;-122.338;2022-10-16T14:16:08;101434.59;;;17.57;66.67
70009;BME280;59542;37.950;-122.338;2022-10-16T14:18:35;101440.38;;;17.37;67.60
70009;BME280;59542;37.950;-122.338;2022-10-16T14:21:05;101438.50;;;17.50;67.12
70009;BME280;59542;37.950;-122.338;2022-10-16T14:23:36;101438.72;;;17.36;67.72
70009;BME280;59542;37.950;-122.338;2022-10-16T14:26:24;101444.88;;;17.44;67.86